< Typhoon 200005 2000 Season Typhoon 200007 >
Typhoon 200006 (BOLAVEN)
General InformationTrack Information on Google MapsDetailed Wind InformationList of All Images || Disaster Info.ResourceGoogle EarthGE AnimationAtom FeedGeoJSON
Detalied Best Track (Time Zone = UTC)
Year Month Day Hour Lat. Long. Pressure (hPa) Wind (kt) Class Image Chart
2000 7 24 00 17.9 123.9 1000 0 2 Image Chart
2000 7 24 06 18.8 124.2 1000 0 2 Image Chart
2000 7 24 12 20.3 124.4 1000 0 2 Image Chart
2000 7 24 18 21.8 124.8 998 0 2 Image Chart
2000 7 25 00 23.0 125.2 998 0 2 Image Chart
2000 7 25 06 24.0 125.8 996 0 2 Image Chart
2000 7 25 12 24.7 126.4 994 0 2 Image Chart
2000 7 25 18 25.0 126.9 992 35 3 Image Chart
2000 7 26 00 25.4 128.1 990 40 3 Image Chart
2000 7 26 03 25.7 128.6 990 40 3 Image Chart
2000 7 26 06 25.8 129.0 985 40 3 Image Chart
2000 7 26 09 26.0 129.4 985 40 3 Image Chart
2000 7 26 12 26.2 129.7 985 45 3 Image Chart
2000 7 26 15 26.6 129.9 985 45 3 Image Chart
2000 7 26 18 26.8 129.9 985 45 3 Image Chart
2000 7 26 21 26.9 129.9 985 45 3 Image Chart
2000 7 27 00 27.0 129.9 985 45 3 Image Chart
2000 7 27 03 27.2 129.9 985 45 3 Image Chart
2000 7 27 06 27.3 129.8 985 45 3 Image Chart
2000 7 27 09 27.4 129.7 985 45 3 Image Chart
2000 7 27 12 27.4 129.6 985 45 3 Image Chart
2000 7 27 15 27.4 129.5 985 45 3 Image Chart
2000 7 27 18 27.5 129.4 985 45 3 Image Chart
2000 7 27 21 27.6 129.3 985 45 3 Image Chart
2000 7 28 00 27.8 129.3 985 45 3 Image Chart
2000 7 28 03 28.0 129.2 985 45 3 Image Chart
2000 7 28 06 28.1 129.1 985 45 3 Image Chart
2000 7 28 09 28.2 129.1 985 45 3 Image Chart
2000 7 28 12 28.2 129.0 985 45 3 Image Chart
2000 7 28 15 28.2 128.9 985 45 3 Image Chart
2000 7 28 18 28.3 128.8 985 45 3 Image Chart
2000 7 28 21 28.4 128.7 985 45 3 Image Chart
2000 7 29 00 28.6 128.7 985 45 3 Image Chart
2000 7 29 03 28.8 128.7 985 45 3 Image Chart
2000 7 29 06 29.1 128.7 980 50 4 Image Chart
2000 7 29 09 29.5 128.7 980 50 4 Image Chart
2000 7 29 12 29.9 128.6 985 45 3 Image Chart
2000 7 29 15 30.3 128.6 985 45 3 Image Chart
2000 7 29 18 30.7 128.5 985 45 3 Image Chart
2000 7 29 21 31.1 128.5 985 45 3 Image Chart
2000 7 30 00 31.6 128.5 985 45 3 Image Chart
2000 7 30 03 32.1 128.5 985 40 3 Image Chart
2000 7 30 06 32.6 128.5 985 40 3 Image Chart
2000 7 30 09 33.0 128.6 985 40 3 Image Chart
2000 7 30 12 33.4 128.6 985 40 3 Image Chart
2000 7 30 15 33.8 128.7 990 40 3 Image Chart
2000 7 30 18 34.4 128.9 988 40 3 Image Chart
2000 7 30 21 35.2 129.2 990 35 3 Image Chart
2000 7 31 00 35.9 129.7 992 0 2 Image Chart
2000 7 31 06 37.7 131.0 994 0 6 Image Chart
2000 7 31 12 40.8 132.7 996 0 6 Image Chart
2000 7 31 18 42.2 133.9 998 0 6 Image Chart
2000 8 1 00 43.5 135.1 1000 0 6 Image Chart
2000 8 1 06 44.7 137.3 1004 0 6 Image Chart
2000 8 1 12 45.9 139.7 1006 0 6 Image Chart
2000 8 1 18 47.3 141.8 1006 0 6 Image Chart
2000 8 2 00 47.9 144.2 1010 0 6 Image Chart
Japan Meteorological Agency Best Track Data | Correction Date : 2001-12-21
< Typhoon 200005 2000 Season Typhoon 200007 >

Help